Churanov, Czech Republic
Current Conditions -  °F | °C
As of 8:00 AM on Saturday 20 Dec 2014 (Local Time) from LKLN Reporting Station
Broken Clouds Broken Clouds  
Wind Chill: 34°   Ceiling: 3000
Heat Index: 39°   Visibility: 6mi
Dew Point: 34°   Wind: 8mph
Humidity: 81%   Direction: 250°WSW
Pressure: 30.15"   Gusts: NA
Location:  49.07°N, 13.62°E
Report Text: LKLN 200600Z AUTO 25007KT 220V290 9999 BKN030 04/01 Q1021
Loading
Personal Weather Stations






























Interactive Weather Map New forecast layout! Learn more

10-Day Weather Forecast

Advertisements
Track Severe Weather on mobile